Aviation Digital Data Service (ADDS)

Output produced by METARs form (1052 UTC 30 March 2017)
found at http://aviationweather.gov/adds/metars/
 
KBAF 300520Z 3006/3106 34005KT P6SM SKC 
     FM301500 36008KT P6SM SKC 
     FM310000 00000KT P6SM BKN100